Deer, Arkansas
Current Conditions -  °F | °C
As of 3:53 PM on Sunday 21 Dec 2014 (Local Time) from KHRO Reporting Station
Overcast Overcast  
Wind Chill: 39°   Ceiling: 3500
Heat Index: 45°   Visibility: 10mi
Dew Point: 37°   Wind: 13mph
Humidity: 74%   Direction: 150°SSE
Pressure: 29.93"   Gusts: NA
Location:  35.83°N, 93.21°W
Report Text: KHRO 212153Z AUTO 15011KT 10SM OVC035 07/03 A2993 RMK AO2 SLP138 T00720028 $
Loading
Personal Weather Stations






























Interactive Weather Map New forecast layout! Learn more

10-Day Weather Forecast

Advertisements
Track Severe Weather on mobile